createdAt,value
2018-04-06T00:02:24.127Z,79.00
2018-04-06T00:04:51.359Z,78.90
2018-04-06T00:07:18.669Z,78.50
2018-04-06T00:09:45.706Z,78.70
2018-04-06T00:12:13.461Z,73.40
2018-04-06T00:14:41.229Z,71.10
2018-04-06T00:17:08.575Z,71.20
2018-04-06T00:19:35.828Z,75.90
2018-04-06T00:22:03.151Z,69.90
2018-04-06T00:24:30.374Z,69.80
2018-04-06T00:26:57.518Z,71.50
2018-04-06T00:29:24.797Z,69.10
2018-04-06T00:31:52.577Z,71.30
2018-04-06T00:34:19.609Z,71.20
2018-04-06T00:36:47.047Z,72.10
2018-04-06T00:39:14.183Z,72.50
2018-04-06T00:41:41.936Z,67.40
2018-04-06T00:44:09.278Z,67.40
2018-04-06T00:46:36.640Z,68.40
2018-04-06T00:49:03.738Z,64.80
2018-04-06T00:51:30.765Z,65.70
2018-04-06T00:53:58.040Z,66.20
2018-04-06T00:56:26.046Z,64.40
2018-04-06T00:58:53.163Z,64.30
2018-04-06T01:01:21.010Z,62.00
2018-04-06T01:03:48.221Z,62.00
2018-04-06T01:06:15.498Z,64.00
2018-04-06T01:08:42.737Z,64.30
2018-04-06T01:11:09.813Z,66.90
2018-04-06T01:13:37.090Z,62.50
2018-04-06T01:16:05.120Z,62.90
2018-04-06T01:18:32.289Z,62.90
2018-04-06T01:21:00.222Z,57.90
2018-04-06T01:23:27.569Z,57.80
2018-04-06T01:25:54.802Z,54.10
2018-04-06T01:28:22.662Z,55.00
2018-04-06T01:30:49.947Z,54.40
2018-04-06T01:33:16.971Z,53.80
2018-04-06T01:35:44.234Z,54.70
2018-04-06T01:38:12.221Z,55.20
2018-04-06T01:40:39.237Z,57.50
2018-04-06T01:43:07.018Z,59.30
2018-04-06T01:45:35.158Z,60.30
2018-04-06T01:48:02.449Z,60.30
2018-04-06T01:50:29.666Z,58.10
2018-04-06T01:52:56.915Z,55.00
2018-04-06T01:55:24.824Z,58.40
2018-04-06T01:57:52.034Z,58.40
2018-04-06T02:00:19.154Z,59.10
2018-04-06T02:02:46.377Z,59.90
2018-04-06T02:05:13.490Z,60.10
2018-04-06T02:07:40.844Z,61.20
2018-04-06T02:10:08.138Z,63.50
2018-04-06T02:12:35.199Z,63.60
2018-04-06T02:15:02.290Z,63.40
2018-04-06T02:17:29.745Z,63.00
2018-04-06T02:19:56.846Z,64.50
2018-04-06T02:22:24.130Z,65.50
2018-04-06T02:24:51.342Z,66.10
2018-04-06T02:27:18.416Z,65.30
2018-04-06T02:29:45.445Z,65.70
2018-04-06T02:32:12.462Z,67.20
2018-04-06T02:34:39.722Z,68.10
2018-04-06T02:37:07.521Z,66.10
2018-04-06T02:39:34.543Z,66.10
2018-04-06T02:42:01.582Z,65.60
2018-04-06T02:44:28.564Z,63.00
2018-04-06T02:46:55.622Z,61.30
2018-04-06T02:49:22.627Z,60.60
2018-04-06T02:51:49.657Z,59.00
2018-04-06T02:54:17.460Z,56.70
2018-04-06T02:56:44.553Z,56.60
2018-04-06T02:59:11.579Z,56.10
2018-04-06T03:01:38.605Z,55.30
2018-04-06T03:04:05.648Z,57.20
2018-04-06T03:06:33.423Z,54.20
2018-04-06T03:09:00.463Z,54.20
2018-04-06T03:11:28.220Z,52.10
2018-04-06T03:13:56.246Z,52.80
2018-04-06T03:16:23.266Z,52.80
2018-04-06T03:18:50.282Z,51.20
2018-04-06T03:21:17.300Z,51.70
2018-04-06T03:23:45.126Z,51.00
2018-04-06T03:26:12.166Z,51.40
2018-04-06T03:28:39.210Z,51.70
2018-04-06T03:31:06.319Z,50.90
2018-04-06T03:33:34.089Z,50.60
2018-04-06T03:36:01.169Z,50.60
2018-04-06T03:38:28.157Z,51.10
2018-04-06T03:40:55.185Z,52.60
2018-04-06T03:43:22.186Z,53.90
2018-04-06T03:45:50.212Z,55.70
2018-04-06T03:48:17.214Z,56.30
2018-04-06T03:50:44.209Z,56.10
2018-04-06T03:53:11.237Z,57.30
2018-04-06T03:55:38.261Z,56.50
2018-04-06T03:58:05.278Z,57.50
2018-04-06T04:00:33.044Z,58.20
2018-04-06T04:03:00.064Z,58.10
2018-04-06T04:05:27.198Z,58.30
2018-04-06T04:07:54.213Z,59.20
2018-04-06T04:10:21.231Z,59.30
2018-04-06T04:12:48.977Z,59.70
2018-04-06T04:15:15.992Z,59.60
2018-04-06T04:17:43.058Z,58.90
2018-04-06T04:20:10.065Z,59.30
2018-04-06T04:22:37.312Z,59.30
2018-04-06T04:25:04.424Z,59.00
2018-04-06T04:27:31.734Z,58.70
2018-04-06T04:29:58.910Z,57.50
2018-04-06T04:32:25.956Z,57.00
2018-04-06T04:34:53.901Z,56.80
2018-04-06T04:37:20.932Z,56.70
2018-04-06T04:39:48.240Z,57.90
2018-04-06T04:42:15.387Z,57.90
2018-04-06T04:44:43.277Z,59.30
2018-04-06T04:47:10.473Z,59.30
2018-04-06T04:49:37.502Z,58.80
2018-04-06T04:52:04.556Z,58.70
2018-04-06T04:54:31.577Z,59.50
2018-04-06T04:56:58.882Z,59.80
2018-04-06T04:59:26.309Z,60.30
2018-04-06T05:01:53.594Z,60.90
2018-04-06T05:04:21.388Z,60.60
2018-04-06T05:06:49.238Z,61.80
2018-04-06T05:09:16.238Z,61.30
2018-04-06T05:11:43.261Z,62.50
2018-04-06T05:14:10.566Z,62.60
2018-04-06T05:16:37.685Z,63.30
2018-04-06T05:19:05.044Z,63.60
2018-04-06T05:21:33.088Z,64.20
2018-04-06T05:24:00.938Z,63.70
2018-04-06T05:26:28.742Z,64.30
2018-04-06T05:28:56.010Z,64.30
2018-04-06T05:31:23.798Z,63.20
2018-04-06T05:33:51.041Z,64.00
2018-04-06T05:36:19.198Z,61.90
2018-04-06T05:38:46.581Z,61.90
2018-04-06T05:41:13.692Z,61.10
2018-04-06T05:43:40.741Z,60.80
2018-04-06T05:46:08.468Z,60.50
2018-04-06T05:48:36.201Z,60.60
2018-04-06T05:51:03.392Z,59.70
2018-04-06T05:53:31.365Z,62.20
2018-04-06T05:55:58.645Z,62.10
2018-04-06T05:58:25.701Z,62.40
2018-04-06T06:00:52.731Z,61.00
2018-04-06T06:03:20.926Z,59.70
2018-04-06T06:05:48.085Z,59.10
2018-04-06T06:08:15.085Z,59.10
2018-04-06T06:10:43.147Z,56.70
2018-04-06T06:13:10.731Z,56.70
2018-04-06T06:15:38.225Z,53.80
2018-04-06T06:18:05.407Z,53.20
2018-04-06T06:20:32.703Z,51.40
2018-04-06T06:22:59.809Z,50.20
2018-04-06T06:25:27.830Z,49.10
2018-04-06T06:27:55.633Z,49.20
2018-04-06T06:30:22.658Z,49.10
2018-04-06T06:32:50.652Z,47.10
2018-04-06T06:35:18.493Z,46.90
2018-04-06T06:37:45.513Z,46.80
2018-04-06T06:40:12.748Z,46.40
2018-04-06T06:42:40.710Z,46.90
2018-04-06T06:45:07.889Z,46.90
2018-04-06T06:47:35.347Z,44.90
2018-04-06T06:50:03.192Z,44.10
2018-04-06T06:52:30.223Z,44.10
2018-04-06T06:54:58.123Z,43.20
2018-04-06T06:57:25.279Z,43.20
2018-04-06T06:59:52.498Z,44.10
2018-04-06T07:02:19.575Z,43.90
2018-04-06T07:04:46.601Z,43.50
2018-04-06T07:07:14.704Z,43.40
2018-04-06T07:09:41.741Z,43.60
2018-04-06T07:12:09.029Z,41.90
2018-04-06T07:14:36.585Z,40.20
2018-04-06T07:17:05.232Z,41.60
2018-04-06T07:19:33.448Z,41.50
2018-04-06T07:22:01.329Z,41.70
2018-04-06T07:24:28.617Z,41.60
2018-04-06T07:26:55.962Z,41.30
2018-04-06T07:29:23.894Z,41.00
2018-04-06T07:31:50.926Z,40.90
2018-04-06T07:34:18.122Z,40.90
2018-04-06T07:36:45.334Z,39.70
2018-04-06T07:39:12.516Z,39.50
2018-04-06T07:41:39.718Z,39.70
2018-04-06T07:44:06.767Z,39.50
2018-04-06T07:46:33.841Z,37.90
2018-04-06T07:49:01.122Z,38.00
2018-04-06T07:51:28.226Z,38.40
2018-04-06T07:53:55.250Z,40.20
2018-04-06T07:56:22.511Z,38.70
2018-04-06T07:58:49.558Z,39.60
2018-04-06T08:01:16.702Z,39.10
2018-04-06T08:03:43.774Z,37.60
2018-04-06T08:06:10.810Z,37.40
2018-04-06T08:08:37.843Z,36.60
2018-04-06T08:11:04.891Z,36.50
2018-04-06T08:13:32.094Z,36.80
2018-04-06T08:15:59.186Z,36.90
2018-04-06T08:18:26.573Z,37.30
2018-04-06T08:20:53.855Z,36.90
2018-04-06T08:23:21.008Z,37.40
2018-04-06T08:25:48.109Z,37.30
2018-04-06T08:28:16.166Z,38.10
2018-04-06T08:30:43.232Z,38.00
2018-04-06T08:33:10.246Z,37.80
2018-04-06T08:35:37.322Z,38.40
2018-04-06T08:38:05.364Z,38.80
2018-04-06T08:40:32.529Z,39.60
2018-04-06T08:42:59.599Z,38.00
2018-04-06T08:45:26.694Z,38.20
2018-04-06T08:47:54.473Z,36.90
2018-04-06T08:50:21.531Z,36.80
2018-04-06T08:52:48.721Z,36.30
2018-04-06T08:55:15.922Z,36.90
2018-04-06T08:57:43.771Z,36.10
2018-04-06T09:00:11.809Z,36.10
2018-04-06T09:02:39.257Z,36.90
2018-04-06T09:05:07.082Z,35.80
2018-04-06T09:07:34.108Z,35.70
2018-04-06T09:10:01.158Z,35.50
2018-04-06T09:12:28.897Z,34.50
2018-04-06T09:14:55.914Z,34.50
2018-04-06T09:17:22.977Z,37.50
2018-04-06T09:19:50.067Z,38.50
2018-04-06T09:22:17.073Z,36.70
2018-04-06T09:24:44.065Z,35.80
2018-04-06T09:27:11.154Z,38.00
2018-04-06T09:29:38.179Z,33.80
2018-04-06T09:32:05.230Z,33.50
2018-04-06T09:34:32.291Z,33.80
2018-04-06T09:37:00.051Z,35.70
2018-04-06T09:39:27.079Z,35.60
2018-04-06T09:41:54.869Z,34.00
2018-04-06T09:44:21.870Z,34.00
2018-04-06T09:46:49.706Z,32.60
2018-04-06T09:49:16.717Z,32.60
2018-04-06T09:51:43.982Z,32.90
2018-04-06T09:54:11.053Z,32.70
2018-04-06T09:56:38.078Z,33.30
2018-04-06T09:59:05.124Z,34.00
2018-04-06T10:01:35.119Z,34.50
2018-04-06T10:04:02.133Z,34.40
2018-04-06T10:06:29.473Z,32.60
2018-04-06T10:08:56.684Z,36.40
2018-04-06T10:11:24.953Z,35.40
2018-04-06T10:13:53.065Z,36.50
2018-04-06T10:16:24.814Z,31.80
2018-04-06T10:18:55.259Z,34.60
2018-04-06T10:24:03.561Z,34.20
2018-04-06T10:26:57.558Z,31.40
2018-04-06T10:32:32.199Z,31.00
2018-04-06T10:34:59.325Z,30.50
2018-04-06T10:37:29.135Z,29.90
2018-04-06T10:40:00.119Z,29.40
2018-04-06T10:42:39.947Z,30.40
2018-04-06T10:45:08.359Z,29.80
2018-04-06T10:47:35.515Z,30.60
2018-04-06T10:50:03.310Z,30.00
2018-04-06T10:52:30.599Z,29.90
2018-04-06T10:54:57.616Z,30.30
2018-04-06T10:57:24.714Z,30.10
2018-04-06T10:59:51.730Z,28.20
2018-04-06T11:02:18.836Z,29.10
2018-04-06T11:04:46.582Z,28.90
2018-04-06T11:07:14.342Z,29.00
2018-04-06T11:09:41.361Z,30.00
2018-04-06T11:12:08.400Z,27.70
2018-04-06T11:14:35.632Z,28.20
2018-04-06T11:17:03.650Z,31.00
2018-04-06T11:19:30.872Z,30.90
2018-04-06T11:21:57.987Z,29.30
2018-04-06T11:24:25.034Z,30.20
2018-04-06T11:26:52.895Z,27.50
2018-04-06T11:29:20.875Z,27.20
2018-04-06T11:31:48.123Z,27.30
2018-04-06T11:34:17.287Z,29.50
2018-04-06T11:36:44.513Z,28.30
2018-04-06T11:39:11.837Z,28.10
2018-04-06T11:41:39.582Z,29.00
2018-04-06T11:44:06.622Z,29.00
2018-04-06T11:46:33.879Z,30.10
2018-04-06T11:49:01.634Z,28.20
2018-04-06T11:51:28.649Z,28.20
2018-04-06T11:53:57.030Z,27.40
2018-04-06T11:56:24.090Z,26.20
2018-04-06T11:58:51.078Z,27.20
2018-04-06T12:01:18.844Z,25.10
2018-04-06T12:03:45.831Z,25.20
2018-04-06T12:06:12.870Z,24.10
2018-04-06T12:08:39.965Z,23.50
2018-04-06T12:11:06.963Z,23.10
2018-04-06T12:13:33.962Z,20.40
2018-04-06T12:16:01.078Z,20.30
2018-04-06T12:18:28.068Z,19.20
2018-04-06T12:20:55.165Z,20.40
2018-04-06T12:23:22.163Z,18.60
2018-04-06T12:25:49.237Z,18.40
2018-04-06T12:28:16.286Z,18.00
2018-04-06T12:30:44.049Z,16.60
2018-04-06T12:33:11.769Z,17.30
2018-04-06T12:35:38.885Z,17.10
2018-04-06T12:38:05.919Z,16.70
2018-04-06T12:40:33.646Z,17.30
2018-04-06T12:43:00.666Z,17.40
2018-04-06T12:45:28.077Z,16.70
2018-04-06T12:47:55.324Z,15.50
2018-04-06T12:50:22.509Z,17.00
2018-04-06T12:52:50.568Z,18.40
2018-04-06T12:55:18.425Z,17.10
2018-04-06T12:57:45.695Z,17.00
2018-04-06T13:00:13.912Z,14.80
2018-04-06T13:02:41.010Z,14.80
2018-04-06T13:05:08.185Z,15.30
2018-04-06T13:07:35.304Z,14.90
2018-04-06T13:10:02.645Z,15.40
2018-04-06T13:12:29.702Z,14.20
2018-04-06T13:14:57.457Z,14.40
2018-04-06T13:17:24.694Z,14.40
2018-04-06T13:19:51.669Z,13.40
2018-04-06T13:22:18.775Z,14.50
2018-04-06T13:24:46.733Z,16.60
2018-04-06T13:27:13.845Z,16.50
2018-04-06T13:29:41.430Z,16.50
2018-04-06T13:32:09.385Z,14.40
2018-04-06T13:34:36.475Z,14.40
2018-04-06T13:37:03.584Z,14.70
2018-04-06T13:39:30.870Z,16.70
2018-04-06T13:41:57.954Z,16.50
2018-04-06T13:44:25.004Z,14.30
2018-04-06T13:46:52.107Z,14.60
2018-04-06T13:49:19.143Z,14.20
2018-04-06T13:51:46.863Z,14.50
2018-04-06T13:54:14.235Z,15.20
2018-04-06T13:56:41.406Z,15.90
2018-04-06T13:59:08.469Z,18.50
2018-04-06T14:01:35.481Z,16.20
2018-04-06T14:04:02.493Z,18.70
2018-04-06T14:06:45.206Z,17.50
2018-04-06T14:09:12.937Z,17.40
2018-04-06T14:11:39.943Z,17.40
2018-04-06T14:14:06.942Z,17.10
2018-04-06T14:16:34.049Z,17.70
2018-04-06T14:19:01.047Z,15.30
2018-04-06T14:21:28.054Z,15.80
2018-04-06T14:23:55.071Z,17.30
2018-04-06T14:26:22.190Z,17.90
2018-04-06T14:28:49.937Z,18.80
2018-04-06T14:31:17.008Z,18.60
2018-04-06T14:33:44.010Z,15.60
2018-04-06T14:36:11.029Z,16.20
2018-04-06T14:38:38.028Z,16.00
2018-04-06T14:41:05.038Z,16.50
2018-04-06T14:43:32.045Z,17.60
2018-04-06T14:46:00.048Z,21.70
2018-04-06T14:48:27.033Z,22.20
2018-04-06T14:50:54.042Z,19.80
2018-04-06T14:53:21.046Z,18.00
2018-04-06T14:55:48.849Z,17.60
2018-04-06T14:58:16.678Z,17.60
2018-04-06T15:00:44.461Z,19.70
2018-04-06T15:03:12.236Z,20.50
2018-04-06T15:05:39.292Z,20.60
2018-04-06T15:08:06.654Z,20.50
2018-04-06T15:10:33.962Z,21.10
2018-04-06T15:13:01.002Z,23.70
2018-04-06T15:15:28.157Z,24.50
2018-04-06T15:17:55.900Z,25.70
2018-04-06T15:20:23.670Z,27.30
2018-04-06T15:22:50.685Z,27.30
2018-04-06T15:25:17.726Z,27.40
2018-04-06T15:27:44.721Z,29.10
2018-04-06T15:30:11.696Z,29.80
2018-04-06T15:32:39.051Z,29.00
2018-04-06T15:35:06.136Z,29.80
2018-04-06T15:37:33.928Z,32.40
2018-04-06T15:40:01.002Z,32.40
2018-04-06T15:42:28.054Z,31.20
2018-04-06T15:44:55.069Z,32.50
2018-04-06T15:47:22.133Z,33.20
2018-04-06T15:49:49.150Z,33.50
2018-04-06T15:52:16.126Z,33.40
2018-04-06T15:54:43.409Z,32.90
2018-04-06T15:57:10.549Z,32.30
2018-04-06T15:59:37.555Z,32.50
2018-04-06T16:02:04.613Z,32.70
2018-04-06T16:04:31.627Z,33.70
2018-04-06T16:06:58.958Z,33.70
2018-04-06T16:09:26.005Z,34.90
2018-04-06T16:11:53.093Z,34.20
2018-04-06T16:14:20.134Z,34.70
2018-04-06T16:16:47.158Z,35.00
2018-04-06T16:19:14.931Z,35.20
2018-04-06T16:21:42.271Z,35.20
2018-04-06T16:24:09.348Z,36.20
2018-04-06T16:26:36.385Z,35.60
2018-04-06T16:29:03.441Z,35.30
2018-04-06T16:31:30.531Z,35.40
2018-04-06T16:33:58.297Z,35.80
2018-04-06T16:36:25.418Z,35.80
2018-04-06T16:38:52.462Z,36.20
2018-04-06T16:41:19.446Z,36.50
2018-04-06T16:43:46.479Z,35.60
2018-04-06T16:46:13.598Z,35.80
2018-04-06T16:48:40.664Z,36.70
2018-04-06T16:51:07.861Z,37.30
2018-04-06T16:53:35.684Z,37.30
2018-04-06T16:56:04.009Z,36.70
2018-04-06T16:58:31.116Z,36.40
2018-04-06T17:00:58.173Z,37.40
2018-04-06T17:03:25.983Z,37.70
2018-04-06T17:05:53.037Z,37.70
2018-04-06T17:08:20.035Z,37.40
2018-04-06T17:10:47.050Z,38.30
2018-04-06T17:13:14.085Z,38.50
2018-04-06T17:15:41.161Z,38.40
2018-04-06T17:18:08.947Z,39.60
2018-04-06T17:20:35.931Z,39.60
2018-04-06T17:23:02.989Z,42.00
2018-04-06T17:25:30.054Z,43.20
2018-04-06T17:27:57.056Z,44.10
2018-04-06T17:30:24.061Z,45.40
2018-04-06T17:32:51.369Z,45.80
2018-04-06T17:35:18.429Z,46.10
2018-04-06T17:37:45.452Z,47.40
2018-04-06T17:40:12.677Z,47.70
2018-04-06T17:42:40.442Z,48.30
2018-04-06T17:45:08.210Z,48.60
2018-04-06T17:47:37.209Z,49.20
2018-04-06T17:50:04.337Z,48.80
2018-04-06T17:52:32.306Z,49.60
2018-04-06T17:54:59.518Z,49.50
2018-04-06T17:57:28.874Z,49.10
2018-04-06T17:59:56.025Z,49.80
2018-04-06T18:02:23.017Z,49.50
2018-04-06T18:04:50.270Z,49.90
2018-04-06T18:07:18.460Z,49.40
2018-04-06T18:09:46.211Z,49.80
2018-04-06T18:12:13.228Z,49.70
2018-04-06T18:14:40.201Z,48.90
2018-04-06T18:17:07.431Z,49.40
2018-04-06T18:19:35.167Z,49.20
2018-04-06T18:22:02.175Z,49.40
2018-04-06T18:24:29.926Z,50.00
2018-04-06T18:26:56.931Z,49.90
2018-04-06T18:29:24.482Z,50.00
2018-04-06T18:31:51.510Z,49.20
2018-04-06T18:34:19.566Z,49.40
2018-04-06T18:36:47.406Z,49.90
2018-04-06T18:39:14.377Z,49.80
2018-04-06T18:41:41.361Z,49.80
2018-04-06T18:44:08.434Z,50.70
2018-04-06T18:46:35.458Z,50.10
2018-04-06T18:49:02.510Z,50.30
2018-04-06T18:51:29.734Z,50.70
2018-04-06T18:53:56.833Z,51.10
2018-04-06T18:56:24.366Z,51.90
2018-04-06T18:58:51.667Z,52.30
2018-04-06T19:01:18.877Z,52.20
2018-04-06T19:03:46.035Z,52.30
2018-04-06T19:06:13.228Z,52.20
2018-04-06T19:08:40.960Z,52.20
2018-04-06T19:11:08.418Z,52.20
2018-04-06T19:13:35.727Z,52.60
2018-04-06T19:16:03.303Z,52.20
2018-04-06T19:18:31.058Z,52.30
2018-04-06T19:20:58.615Z,53.10
2018-04-06T19:23:26.342Z,53.90
2018-04-06T19:25:53.618Z,54.10
2018-04-06T19:28:20.837Z,54.20
2018-04-06T19:30:47.946Z,54.70
2018-04-06T19:33:15.087Z,54.60
2018-04-06T19:35:42.174Z,54.30
2018-04-06T19:38:09.328Z,54.60
2018-04-06T19:40:36.334Z,54.80
2018-04-06T19:43:03.339Z,54.80
2018-04-06T19:45:30.478Z,56.20
2018-04-06T19:47:58.799Z,56.80
2018-04-06T19:50:25.955Z,57.50
2018-04-06T19:52:53.703Z,57.70
2018-04-06T19:55:21.406Z,57.70
2018-04-06T19:57:48.534Z,57.40
2018-04-06T20:00:15.550Z,58.00
2018-04-06T20:02:42.585Z,58.00
2018-04-06T20:05:09.606Z,58.00
2018-04-06T20:07:37.618Z,58.90
2018-04-06T20:10:04.624Z,58.10
2018-04-06T20:12:31.682Z,58.20
2018-04-06T20:14:59.350Z,58.20
2018-04-06T20:17:27.227Z,58.40
2018-04-06T20:19:55.490Z,58.40
2018-04-06T20:22:22.602Z,58.40
2018-04-06T20:24:49.588Z,58.50
2018-04-06T20:27:17.150Z,59.20
2018-04-06T20:29:45.062Z,58.50
2018-04-06T20:32:13.123Z,58.50
2018-04-06T20:34:40.440Z,58.50
2018-04-06T20:37:07.599Z,58.20
2018-04-06T20:39:35.093Z,58.00
2018-04-06T20:42:02.980Z,58.70
2018-04-06T20:44:29.986Z,58.70
2018-04-06T20:46:57.008Z,59.20
2018-04-06T20:49:24.057Z,59.30
2018-04-06T20:51:51.033Z,59.40
2018-04-06T20:54:18.038Z,59.60
2018-04-06T20:56:45.082Z,60.20
2018-04-06T20:59:12.681Z,60.30
2018-04-06T21:01:40.242Z,61.10
2018-04-06T21:04:07.306Z,61.50
2018-04-06T21:06:34.446Z,61.70
2018-04-06T21:09:01.454Z,62.00
2018-04-06T21:11:28.921Z,62.30
2018-04-06T21:13:56.047Z,62.10
2018-04-06T21:16:23.120Z,61.90
2018-04-06T21:18:50.238Z,61.60
2018-04-06T21:21:17.377Z,61.70
2018-04-06T21:23:44.401Z,61.50
2018-04-06T21:26:12.226Z,61.90
2018-04-06T21:28:40.041Z,62.20
2018-04-06T21:31:07.380Z,62.10
2018-04-06T21:33:34.367Z,61.70
2018-04-06T21:36:01.491Z,62.10
2018-04-06T21:38:28.887Z,61.70
2018-04-06T21:40:56.241Z,61.50
2018-04-06T21:43:23.331Z,61.70
2018-04-06T21:45:51.331Z,61.80
2018-04-06T21:48:19.222Z,61.90
2018-04-06T21:50:46.306Z,61.90
2018-04-06T21:53:13.515Z,61.80
2018-04-06T21:55:40.638Z,62.20
2018-04-06T21:58:08.435Z,62.00
2018-04-06T22:00:35.482Z,62.00
2018-04-06T22:03:02.649Z,62.30
2018-04-06T22:05:29.705Z,62.20
2018-04-06T22:07:56.883Z,62.30
2018-04-06T22:10:24.775Z,63.20
2018-04-06T22:12:52.722Z,62.50
2018-04-06T22:15:19.835Z,62.50
2018-04-06T22:17:46.886Z,62.90
2018-04-06T22:20:14.129Z,63.30
2018-04-06T22:22:41.922Z,63.30
2018-04-06T22:25:08.941Z,63.30
2018-04-06T22:27:35.998Z,63.50
2018-04-06T22:30:03.088Z,63.80
2018-04-06T22:32:30.142Z,64.00
2018-04-06T22:34:57.168Z,63.70
2018-04-06T22:37:24.305Z,63.50
2018-04-06T22:39:51.672Z,63.70
2018-04-06T22:42:19.665Z,63.60
2018-04-06T22:44:47.530Z,63.50
2018-04-06T22:47:15.386Z,63.70
2018-04-06T22:49:42.412Z,63.50
2018-04-06T22:52:09.817Z,63.90
2018-04-06T22:54:36.929Z,63.80
2018-04-06T22:57:04.288Z,64.30
2018-04-06T22:59:31.273Z,63.70
2018-04-06T23:01:58.302Z,64.20
2018-04-06T23:04:25.326Z,64.20
2018-04-06T23:06:52.416Z,64.30
2018-04-06T23:09:20.160Z,64.60
2018-04-06T23:11:47.200Z,64.60
2018-04-06T23:14:14.976Z,64.60
2018-04-06T23:16:42.059Z,64.60
2018-04-06T23:19:09.069Z,64.70
2018-04-06T23:21:36.941Z,65.60
2018-04-06T23:24:03.973Z,65.60
2018-04-06T23:26:31.072Z,65.90
2018-04-06T23:28:58.097Z,66.20
2018-04-06T23:31:25.085Z,66.20
2018-04-06T23:33:53.130Z,66.70
2018-04-06T23:36:21.196Z,66.50
2018-04-06T23:38:48.242Z,66.30
2018-04-06T23:41:15.249Z,66.70
2018-04-06T23:43:43.001Z,66.40
2018-04-06T23:46:10.828Z,66.60
2018-04-06T23:48:37.934Z,66.60
2018-04-06T23:51:05.262Z,67.00
2018-04-06T23:53:33.015Z,66.70
2018-04-06T23:56:01.063Z,66.70
2018-04-06T23:58:28.777Z,66.70
